sensor_id;sensor_type;location;lat;lon;timestamp;P1;durP1;ratioP1;P2;durP2;ratioP2
55216;SDS011;41086;46.736;15.666;2023-04-24T00:02:03;16.90;;;10.18;;
55216;SDS011;41086;46.736;15.666;2023-04-24T00:04:30;9.00;;;6.95;;
55216;SDS011;41086;46.736;15.666;2023-04-24T00:06:58;11.20;;;8.07;;
55216;SDS011;41086;46.736;15.666;2023-04-24T00:09:26;9.60;;;6.75;;
55216;SDS011;41086;46.736;15.666;2023-04-24T00:11:53;12.40;;;6.80;;
55216;SDS011;41086;46.736;15.666;2023-04-24T00:14:20;10.60;;;7.18;;
55216;SDS011;41086;46.736;15.666;2023-04-24T00:16:46;14.95;;;10.20;;
55216;SDS011;41086;46.736;15.666;2023-04-24T00:19:13;21.15;;;8.57;;
55216;SDS011;41086;46.736;15.666;2023-04-24T00:21:40;13.05;;;9.77;;
55216;SDS011;41086;46.736;15.666;2023-04-24T00:26:35;13.45;;;7.88;;
55216;SDS011;41086;46.736;15.666;2023-04-24T00:29:01;9.82;;;7.18;;
55216;SDS011;41086;46.736;15.666;2023-04-24T00:31:28;11.18;;;8.95;;
55216;SDS011;41086;46.736;15.666;2023-04-24T00:33:55;22.20;;;8.85;;
55216;SDS011;41086;46.736;15.666;2023-04-24T00:36:21;14.15;;;10.07;;
55216;SDS011;41086;46.736;15.666;2023-04-24T00:38:49;12.88;;;9.43;;
55216;SDS011;41086;46.736;15.666;2023-04-24T00:41:15;11.57;;;7.97;;
55216;SDS011;41086;46.736;15.666;2023-04-24T00:43:42;11.27;;;6.97;;
55216;SDS011;41086;46.736;15.666;2023-04-24T00:46:08;10.90;;;7.57;;
55216;SDS011;41086;46.736;15.666;2023-04-24T00:48:35;11.68;;;7.97;;
55216;SDS011;41086;46.736;15.666;2023-04-24T00:51:02;11.40;;;7.97;;
55216;SDS011;41086;46.736;15.666;2023-04-24T00:53:29;10.47;;;7.20;;
55216;SDS011;41086;46.736;15.666;2023-04-24T00:55:56;11.38;;;9.68;;
55216;SDS011;41086;46.736;15.666;2023-04-24T00:58:22;12.23;;;7.82;;
55216;SDS011;41086;46.736;15.666;2023-04-24T01:00:49;11.75;;;8.13;;
55216;SDS011;41086;46.736;15.666;2023-04-24T01:03:20;13.32;;;10.20;;
55216;SDS011;41086;46.736;15.666;2023-04-24T01:05:48;10.88;;;8.27;;
55216;SDS011;41086;46.736;15.666;2023-04-24T01:08:15;12.90;;;9.27;;
55216;SDS011;41086;46.736;15.666;2023-04-24T01:10:42;12.77;;;8.30;;
55216;SDS011;41086;46.736;15.666;2023-04-24T01:13:10;11.80;;;7.65;;
55216;SDS011;41086;46.736;15.666;2023-04-24T01:15:37;15.32;;;10.57;;
55216;SDS011;41086;46.736;15.666;2023-04-24T01:18:04;18.70;;;14.30;;
55216;SDS011;41086;46.736;15.666;2023-04-24T01:20:30;18.25;;;11.77;;
55216;SDS011;41086;46.736;15.666;2023-04-24T01:22:58;15.68;;;11.13;;
55216;SDS011;41086;46.736;15.666;2023-04-24T01:25:24;20.02;;;12.80;;
55216;SDS011;41086;46.736;15.666;2023-04-24T01:27:52;14.40;;;10.15;;
55216;SDS011;41086;46.736;15.666;2023-04-24T01:30:19;18.63;;;10.40;;
55216;SDS011;41086;46.736;15.666;2023-04-24T01:32:45;13.38;;;10.27;;
55216;SDS011;41086;46.736;15.666;2023-04-24T01:35:12;22.17;;;10.23;;
55216;SDS011;41086;46.736;15.666;2023-04-24T01:37:39;11.20;;;9.25;;
55216;SDS011;41086;46.736;15.666;2023-04-24T01:40:06;12.65;;;8.50;;
55216;SDS011;41086;46.736;15.666;2023-04-24T01:45:01;13.90;;;9.07;;
55216;SDS011;41086;46.736;15.666;2023-04-24T01:47:29;13.73;;;10.18;;
55216;SDS011;41086;46.736;15.666;2023-04-24T01:49:56;13.50;;;9.50;;
55216;SDS011;41086;46.736;15.666;2023-04-24T01:52:23;14.68;;;10.30;;
55216;SDS011;41086;46.736;15.666;2023-04-24T01:54:50;14.00;;;9.32;;
55216;SDS011;41086;46.736;15.666;2023-04-24T01:57:16;14.68;;;9.90;;
55216;SDS011;41086;46.736;15.666;2023-04-24T01:59:43;14.73;;;8.85;;
55216;SDS011;41086;46.736;15.666;2023-04-24T02:02:10;13.27;;;10.18;;
55216;SDS011;41086;46.736;15.666;2023-04-24T02:04:37;14.80;;;9.88;;
55216;SDS011;41086;46.736;15.666;2023-04-24T02:07:04;13.70;;;10.07;;
55216;SDS011;41086;46.736;15.666;2023-04-24T02:09:31;12.82;;;9.48;;
55216;SDS011;41086;46.736;15.666;2023-04-24T02:11:58;14.80;;;8.73;;
55216;SDS011;41086;46.736;15.666;2023-04-24T02:14:25;13.60;;;9.18;;
55216;SDS011;41086;46.736;15.666;2023-04-24T02:16:51;11.15;;;8.45;;
55216;SDS011;41086;46.736;15.666;2023-04-24T02:19:18;11.90;;;9.43;;
55216;SDS011;41086;46.736;15.666;2023-04-24T02:21:45;14.68;;;9.43;;
55216;SDS011;41086;46.736;15.666;2023-04-24T02:24:11;17.45;;;11.27;;
55216;SDS011;41086;46.736;15.666;2023-04-24T02:26:38;18.27;;;10.02;;
55216;SDS011;41086;46.736;15.666;2023-04-24T02:29:05;10.80;;;7.65;;
55216;SDS011;41086;46.736;15.666;2023-04-24T02:31:31;13.43;;;9.98;;
55216;SDS011;41086;46.736;15.666;2023-04-24T02:33:58;11.52;;;8.23;;
55216;SDS011;41086;46.736;15.666;2023-04-24T02:36:24;16.33;;;10.57;;
55216;SDS011;41086;46.736;15.666;2023-04-24T02:38:51;15.23;;;9.68;;
55216;SDS011;41086;46.736;15.666;2023-04-24T02:41:17;11.02;;;7.65;;
55216;SDS011;41086;46.736;15.666;2023-04-24T02:43:44;11.45;;;8.63;;
55216;SDS011;41086;46.736;15.666;2023-04-24T02:46:11;11.25;;;8.50;;
55216;SDS011;41086;46.736;15.666;2023-04-24T02:48:37;12.43;;;7.95;;
55216;SDS011;41086;46.736;15.666;2023-04-24T02:51:04;12.55;;;8.32;;
55216;SDS011;41086;46.736;15.666;2023-04-24T02:53:32;11.38;;;7.57;;
55216;SDS011;41086;46.736;15.666;2023-04-24T02:55:59;12.27;;;9.20;;
55216;SDS011;41086;46.736;15.666;2023-04-24T02:58:26;22.00;;;9.32;;
55216;SDS011;41086;46.736;15.666;2023-04-24T03:00:53;13.23;;;8.90;;
55216;SDS011;41086;46.736;15.666;2023-04-24T03:03:20;15.75;;;8.80;;
55216;SDS011;41086;46.736;15.666;2023-04-24T03:05:47;13.13;;;8.82;;
55216;SDS011;41086;46.736;15.666;2023-04-24T03:08:14;14.57;;;9.82;;
55216;SDS011;41086;46.736;15.666;2023-04-24T03:13:08;13.88;;;8.40;;
55216;SDS011;41086;46.736;15.666;2023-04-24T03:15:34;18.08;;;9.52;;
55216;SDS011;41086;46.736;15.666;2023-04-24T03:18:01;11.43;;;7.03;;
55216;SDS011;41086;46.736;15.666;2023-04-24T03:20:29;11.40;;;7.57;;
55216;SDS011;41086;46.736;15.666;2023-04-24T03:22:57;12.07;;;8.73;;
55216;SDS011;41086;46.736;15.666;2023-04-24T03:25:24;12.02;;;9.07;;
55216;SDS011;41086;46.736;15.666;2023-04-24T03:27:51;11.48;;;8.68;;
55216;SDS011;41086;46.736;15.666;2023-04-24T03:30:39;11.05;;;8.07;;
55216;SDS011;41086;46.736;15.666;2023-04-24T03:33:07;12.18;;;8.50;;
55216;SDS011;41086;46.736;15.666;2023-04-24T03:35:37;12.90;;;9.48;;
55216;SDS011;41086;46.736;15.666;2023-04-24T03:38:08;12.15;;;8.73;;
55216;SDS011;41086;46.736;15.666;2023-04-24T03:40:37;14.77;;;9.68;;
55216;SDS011;41086;46.736;15.666;2023-04-24T03:43:15;12.63;;;7.60;;
55216;SDS011;41086;46.736;15.666;2023-04-24T03:45:41;9.45;;;7.05;;
55216;SDS011;41086;46.736;15.666;2023-04-24T03:50:35;13.73;;;7.05;;
55216;SDS011;41086;46.736;15.666;2023-04-24T03:53:02;17.95;;;7.95;;
55216;SDS011;41086;46.736;15.666;2023-04-24T03:55:38;11.02;;;7.35;;
55216;SDS011;41086;46.736;15.666;2023-04-24T03:58:04;9.73;;;7.00;;
55216;SDS011;41086;46.736;15.666;2023-04-24T04:00:32;13.75;;;9.48;;
55216;SDS011;41086;46.736;15.666;2023-04-24T04:03:18;14.40;;;8.95;;
55216;SDS011;41086;46.736;15.666;2023-04-24T04:05:45;14.15;;;9.38;;
55216;SDS011;41086;46.736;15.666;2023-04-24T04:08:12;15.07;;;8.43;;
55216;SDS011;41086;46.736;15.666;2023-04-24T04:10:39;12.95;;;8.35;;
55216;SDS011;41086;46.736;15.666;2023-04-24T04:13:05;12.38;;;8.23;;
55216;SDS011;41086;46.736;15.666;2023-04-24T04:15:34;12.98;;;8.43;;
55216;SDS011;41086;46.736;15.666;2023-04-24T04:18:00;20.27;;;9.30;;
55216;SDS011;41086;46.736;15.666;2023-04-24T04:20:27;12.65;;;7.93;;
55216;SDS011;41086;46.736;15.666;2023-04-24T04:22:54;13.18;;;8.93;;
55216;SDS011;41086;46.736;15.666;2023-04-24T04:25:32;13.48;;;8.75;;
55216;SDS011;41086;46.736;15.666;2023-04-24T04:27:59;13.63;;;8.77;;
55216;SDS011;41086;46.736;15.666;2023-04-24T04:32:58;13.20;;;8.35;;
55216;SDS011;41086;46.736;15.666;2023-04-24T04:37:51;15.27;;;9.02;;
55216;SDS011;41086;46.736;15.666;2023-04-24T04:40:33;11.82;;;8.90;;
55216;SDS011;41086;46.736;15.666;2023-04-24T04:43:03;22.08;;;9.55;;
55216;SDS011;41086;46.736;15.666;2023-04-24T04:45:37;16.70;;;8.57;;
55216;SDS011;41086;46.736;15.666;2023-04-24T04:48:20;14.45;;;9.10;;
55216;SDS011;41086;46.736;15.666;2023-04-24T04:50:48;24.25;;;9.73;;
55216;SDS011;41086;46.736;15.666;2023-04-24T04:53:15;16.77;;;9.93;;
55216;SDS011;41086;46.736;15.666;2023-04-24T04:55:42;32.00;;;21.13;;
55216;SDS011;41086;46.736;15.666;2023-04-24T04:58:14;12.73;;;9.45;;
55216;SDS011;41086;46.736;15.666;2023-04-24T05:00:41;14.55;;;10.85;;
55216;SDS011;41086;46.736;15.666;2023-04-24T05:03:24;13.70;;;9.30;;
55216;SDS011;41086;46.736;15.666;2023-04-24T05:05:57;12.00;;;9.10;;
55216;SDS011;41086;46.736;15.666;2023-04-24T05:08:24;14.55;;;10.05;;
55216;SDS011;41086;46.736;15.666;2023-04-24T05:10:54;18.35;;;9.73;;
55216;SDS011;41086;46.736;15.666;2023-04-24T05:13:21;16.35;;;9.73;;
55216;SDS011;41086;46.736;15.666;2023-04-24T05:16:07;15.57;;;8.23;;
55216;SDS011;41086;46.736;15.666;2023-04-24T05:18:34;14.02;;;9.60;;
55216;SDS011;41086;46.736;15.666;2023-04-24T05:21:01;15.18;;;9.93;;
55216;SDS011;41086;46.736;15.666;2023-04-24T05:23:28;12.80;;;8.98;;
55216;SDS011;41086;46.736;15.666;2023-04-24T05:25:56;12.50;;;8.13;;
55216;SDS011;41086;46.736;15.666;2023-04-24T05:28:22;9.90;;;7.22;;
55216;SDS011;41086;46.736;15.666;2023-04-24T05:31:02;11.60;;;6.72;;
55216;SDS011;41086;46.736;15.666;2023-04-24T05:35:55;15.73;;;8.25;;
55216;SDS011;41086;46.736;15.666;2023-04-24T05:38:22;14.45;;;8.68;;
55216;SDS011;41086;46.736;15.666;2023-04-24T05:40:48;12.75;;;8.00;;
55216;SDS011;41086;46.736;15.666;2023-04-24T05:43:15;10.82;;;7.15;;
55216;SDS011;41086;46.736;15.666;2023-04-24T05:45:42;16.10;;;7.75;;
55216;SDS011;41086;46.736;15.666;2023-04-24T05:48:08;12.90;;;8.95;;
55216;SDS011;41086;46.736;15.666;2023-04-24T05:50:35;15.32;;;9.13;;
55216;SDS011;41086;46.736;15.666;2023-04-24T05:53:03;11.13;;;8.52;;
55216;SDS011;41086;46.736;15.666;2023-04-24T05:55:33;13.10;;;8.23;;
55216;SDS011;41086;46.736;15.666;2023-04-24T06:00:27;13.05;;;8.50;;
55216;SDS011;41086;46.736;15.666;2023-04-24T06:03:02;17.95;;;8.00;;
55216;SDS011;41086;46.736;15.666;2023-04-24T06:05:30;11.00;;;7.50;;
55216;SDS011;41086;46.736;15.666;2023-04-24T06:07:57;14.85;;;7.82;;
55216;SDS011;41086;46.736;15.666;2023-04-24T06:10:31;12.85;;;6.95;;
55216;SDS011;41086;46.736;15.666;2023-04-24T06:15:29;9.43;;;7.32;;
55216;SDS011;41086;46.736;15.666;2023-04-24T06:18:08;9.27;;;6.68;;
55216;SDS011;41086;46.736;15.666;2023-04-24T06:20:37;15.48;;;7.72;;
55216;SDS011;41086;46.736;15.666;2023-04-24T06:23:04;14.68;;;7.53;;
55216;SDS011;41086;46.736;15.666;2023-04-24T06:25:32;9.55;;;6.65;;
55216;SDS011;41086;46.736;15.666;2023-04-24T06:27:59;10.23;;;6.72;;
55216;SDS011;41086;46.736;15.666;2023-04-24T06:30:25;10.48;;;6.22;;
55216;SDS011;41086;46.736;15.666;2023-04-24T06:32:54;11.40;;;7.57;;
55216;SDS011;41086;46.736;15.666;2023-04-24T06:35:31;10.93;;;6.97;;
55216;SDS011;41086;46.736;15.666;2023-04-24T06:37:58;11.20;;;7.13;;
55216;SDS011;41086;46.736;15.666;2023-04-24T06:40:24;11.20;;;8.13;;
55216;SDS011;41086;46.736;15.666;2023-04-24T06:42:51;11.38;;;8.00;;
55216;SDS011;41086;46.736;15.666;2023-04-24T06:45:18;9.95;;;7.65;;
55216;SDS011;41086;46.736;15.666;2023-04-24T06:47:44;18.75;;;7.70;;
55216;SDS011;41086;46.736;15.666;2023-04-24T06:50:11;23.00;;;8.18;;
55216;SDS011;41086;46.736;15.666;2023-04-24T06:52:38;14.95;;;8.88;;
55216;SDS011;41086;46.736;15.666;2023-04-24T06:55:04;13.73;;;10.07;;
55216;SDS011;41086;46.736;15.666;2023-04-24T06:57:31;11.82;;;8.30;;
55216;SDS011;41086;46.736;15.666;2023-04-24T06:59:58;13.93;;;9.70;;
55216;SDS011;41086;46.736;15.666;2023-04-24T07:02:25;16.45;;;10.23;;
55216;SDS011;41086;46.736;15.666;2023-04-24T07:04:52;14.52;;;9.98;;
55216;SDS011;41086;46.736;15.666;2023-04-24T07:07:19;12.98;;;8.70;;
55216;SDS011;41086;46.736;15.666;2023-04-24T07:09:45;12.75;;;9.05;;
55216;SDS011;41086;46.736;15.666;2023-04-24T07:12:12;12.25;;;9.57;;
55216;SDS011;41086;46.736;15.666;2023-04-24T07:14:39;15.85;;;8.75;;
55216;SDS011;41086;46.736;15.666;2023-04-24T07:17:06;16.27;;;9.02;;
55216;SDS011;41086;46.736;15.666;2023-04-24T07:19:33;15.77;;;9.90;;
55216;SDS011;41086;46.736;15.666;2023-04-24T07:21:59;13.52;;;8.77;;
55216;SDS011;41086;46.736;15.666;2023-04-24T07:24:26;13.68;;;9.55;;
55216;SDS011;41086;46.736;15.666;2023-04-24T07:26:56;12.93;;;8.75;;
55216;SDS011;41086;46.736;15.666;2023-04-24T07:29:23;12.30;;;7.20;;
55216;SDS011;41086;46.736;15.666;2023-04-24T07:31:49;13.27;;;9.65;;
55216;SDS011;41086;46.736;15.666;2023-04-24T07:34:16;11.95;;;8.50;;
55216;SDS011;41086;46.736;15.666;2023-04-24T07:36:43;10.27;;;7.75;;
55216;SDS011;41086;46.736;15.666;2023-04-24T07:39:09;16.63;;;9.27;;
55216;SDS011;41086;46.736;15.666;2023-04-24T07:41:36;17.35;;;11.52;;
55216;SDS011;41086;46.736;15.666;2023-04-24T07:44:02;19.50;;;9.98;;
55216;SDS011;41086;46.736;15.666;2023-04-24T07:46:29;14.82;;;9.70;;
55216;SDS011;41086;46.736;15.666;2023-04-24T07:48:56;12.38;;;8.95;;
55216;SDS011;41086;46.736;15.666;2023-04-24T07:51:38;17.80;;;10.15;;
55216;SDS011;41086;46.736;15.666;2023-04-24T07:56:34;12.75;;;10.23;;
55216;SDS011;41086;46.736;15.666;2023-04-24T07:59:05;15.15;;;9.02;;
55216;SDS011;41086;46.736;15.666;2023-04-24T08:01:31;15.10;;;8.05;;
55216;SDS011;41086;46.736;15.666;2023-04-24T08:03:58;11.55;;;8.10;;
55216;SDS011;41086;46.736;15.666;2023-04-24T08:06:25;11.10;;;8.98;;
55216;SDS011;41086;46.736;15.666;2023-04-24T08:08:56;14.45;;;10.48;;
55216;SDS011;41086;46.736;15.666;2023-04-24T08:11:23;11.25;;;9.07;;
55216;SDS011;41086;46.736;15.666;2023-04-24T08:16:16;12.63;;;9.13;;
55216;SDS011;41086;46.736;15.666;2023-04-24T08:18:43;10.82;;;7.20;;
55216;SDS011;41086;46.736;15.666;2023-04-24T08:21:10;11.32;;;8.32;;
55216;SDS011;41086;46.736;15.666;2023-04-24T08:23:37;12.88;;;9.27;;
55216;SDS011;41086;46.736;15.666;2023-04-24T08:26:04;11.77;;;8.38;;
55216;SDS011;41086;46.736;15.666;2023-04-24T08:28:31;11.48;;;8.55;;
55216;SDS011;41086;46.736;15.666;2023-04-24T08:30:57;11.95;;;8.50;;
55216;SDS011;41086;46.736;15.666;2023-04-24T08:33:24;14.75;;;10.30;;
55216;SDS011;41086;46.736;15.666;2023-04-24T08:35:50;12.80;;;10.20;;
55216;SDS011;41086;46.736;15.666;2023-04-24T08:38:17;12.10;;;9.45;;
55216;SDS011;41086;46.736;15.666;2023-04-24T08:40:45;17.67;;;11.65;;
55216;SDS011;41086;46.736;15.666;2023-04-24T08:43:14;13.60;;;10.38;;
55216;SDS011;41086;46.736;15.666;2023-04-24T08:45:41;14.85;;;11.85;;
55216;SDS011;41086;46.736;15.666;2023-04-24T08:48:07;14.13;;;9.80;;
55216;SDS011;41086;46.736;15.666;2023-04-24T08:50:53;11.82;;;8.18;;
55216;SDS011;41086;46.736;15.666;2023-04-24T08:53:19;17.95;;;8.77;;
55216;SDS011;41086;46.736;15.666;2023-04-24T08:55:47;12.88;;;8.00;;
55216;SDS011;41086;46.736;15.666;2023-04-24T08:58:15;15.82;;;8.82;;
55216;SDS011;41086;46.736;15.666;2023-04-24T09:00:42;15.60;;;9.43;;
55216;SDS011;41086;46.736;15.666;2023-04-24T09:03:16;12.98;;;9.68;;
55216;SDS011;41086;46.736;15.666;2023-04-24T09:05:44;14.27;;;8.93;;
55216;SDS011;41086;46.736;15.666;2023-04-24T09:08:16;16.75;;;7.78;;
55216;SDS011;41086;46.736;15.666;2023-04-24T09:10:42;13.65;;;8.20;;
55216;SDS011;41086;46.736;15.666;2023-04-24T09:13:09;15.27;;;9.38;;
55216;SDS011;41086;46.736;15.666;2023-04-24T09:15:37;16.85;;;11.18;;
55216;SDS011;41086;46.736;15.666;2023-04-24T09:18:04;11.20;;;7.72;;
55216;SDS011;41086;46.736;15.666;2023-04-24T09:22:57;10.88;;;6.70;;
55216;SDS011;41086;46.736;15.666;2023-04-24T09:25:31;13.57;;;7.75;;
55216;SDS011;41086;46.736;15.666;2023-04-24T09:28:00;18.30;;;9.93;;
55216;SDS011;41086;46.736;15.666;2023-04-24T09:30:27;19.23;;;10.65;;
55216;SDS011;41086;46.736;15.666;2023-04-24T09:35:42;15.48;;;8.25;;
55216;SDS011;41086;46.736;15.666;2023-04-24T09:38:09;10.50;;;7.13;;
55216;SDS011;41086;46.736;15.666;2023-04-24T09:40:37;11.50;;;6.85;;
55216;SDS011;41086;46.736;15.666;2023-04-24T09:43:09;10.38;;;6.80;;
55216;SDS011;41086;46.736;15.666;2023-04-24T09:45:37;11.20;;;6.38;;
55216;SDS011;41086;46.736;15.666;2023-04-24T09:48:04;11.23;;;5.03;;
55216;SDS011;41086;46.736;15.666;2023-04-24T09:50:32;7.60;;;4.35;;
55216;SDS011;41086;46.736;15.666;2023-04-24T09:53:04;5.53;;;4.40;;
55216;SDS011;41086;46.736;15.666;2023-04-24T09:55:32;6.50;;;4.90;;
55216;SDS011;41086;46.736;15.666;2023-04-24T09:57:59;9.52;;;5.05;;
55216;SDS011;41086;46.736;15.666;2023-04-24T10:00:32;9.32;;;6.07;;
55216;SDS011;41086;46.736;15.666;2023-04-24T10:02:59;11.68;;;6.82;;
55216;SDS011;41086;46.736;15.666;2023-04-24T10:05:34;10.38;;;6.57;;
55216;SDS011;41086;46.736;15.666;2023-04-24T10:08:01;9.50;;;6.25;;
55216;SDS011;41086;46.736;15.666;2023-04-24T10:10:29;11.15;;;5.53;;
55216;SDS011;41086;46.736;15.666;2023-04-24T10:12:56;8.70;;;5.25;;
55216;SDS011;41086;46.736;15.666;2023-04-24T10:15:23;9.27;;;5.68;;
55216;SDS011;41086;46.736;15.666;2023-04-24T10:17:51;12.75;;;5.95;;
55216;SDS011;41086;46.736;15.666;2023-04-24T10:20:24;12.27;;;6.38;;
55216;SDS011;41086;46.736;15.666;2023-04-24T10:22:52;10.07;;;6.05;;
55216;SDS011;41086;46.736;15.666;2023-04-24T10:25:20;9.60;;;5.70;;
55216;SDS011;41086;46.736;15.666;2023-04-24T10:27:47;9.15;;;5.53;;
55216;SDS011;41086;46.736;15.666;2023-04-24T10:30:14;10.68;;;6.07;;
55216;SDS011;41086;46.736;15.666;2023-04-24T10:35:08;10.48;;;6.97;;
55216;SDS011;41086;46.736;15.666;2023-04-24T10:40:01;11.68;;;7.65;;
55216;SDS011;41086;46.736;15.666;2023-04-24T10:42:28;11.00;;;6.80;;
55216;SDS011;41086;46.736;15.666;2023-04-24T10:44:55;14.00;;;9.10;;
55216;SDS011;41086;46.736;15.666;2023-04-24T10:47:24;14.35;;;9.77;;
55216;SDS011;41086;46.736;15.666;2023-04-24T10:49:51;9.30;;;7.03;;
55216;SDS011;41086;46.736;15.666;2023-04-24T10:52:18;15.32;;;8.50;;
55216;SDS011;41086;46.736;15.666;2023-04-24T10:54:45;15.30;;;9.73;;
55216;SDS011;41086;46.736;15.666;2023-04-24T10:59:49;15.05;;;8.93;;
55216;SDS011;41086;46.736;15.666;2023-04-24T11:02:17;9.15;;;6.70;;
55216;SDS011;41086;46.736;15.666;2023-04-24T11:04:44;10.93;;;7.13;;
55216;SDS011;41086;46.736;15.666;2023-04-24T11:07:14;7.32;;;4.72;;
55216;SDS011;41086;46.736;15.666;2023-04-24T11:09:41;9.38;;;5.20;;
55216;SDS011;41086;46.736;15.666;2023-04-24T11:12:10;7.72;;;5.15;;
55216;SDS011;41086;46.736;15.666;2023-04-24T11:15:00;7.32;;;5.90;;
55216;SDS011;41086;46.736;15.666;2023-04-24T11:19:52;8.90;;;5.55;;
55216;SDS011;41086;46.736;15.666;2023-04-24T11:22:35;7.72;;;4.97;;
55216;SDS011;41086;46.736;15.666;2023-04-24T11:25:02;11.65;;;5.10;;
55216;SDS011;41086;46.736;15.666;2023-04-24T11:27:31;8.45;;;6.15;;
55216;SDS011;41086;46.736;15.666;2023-04-24T11:30:00;9.30;;;6.70;;
55216;SDS011;41086;46.736;15.666;2023-04-24T11:37:35;10.43;;;6.32;;
55216;SDS011;41086;46.736;15.666;2023-04-24T11:40:03;9.45;;;6.35;;
55216;SDS011;41086;46.736;15.666;2023-04-24T11:42:33;9.52;;;5.57;;
55216;SDS011;41086;46.736;15.666;2023-04-24T11:45:00;9.38;;;6.22;;
55216;SDS011;41086;46.736;15.666;2023-04-24T11:47:29;7.00;;;5.22;;
55216;SDS011;41086;46.736;15.666;2023-04-24T11:49:57;7.35;;;4.78;;
55216;SDS011;41086;46.736;15.666;2023-04-24T11:52:25;12.07;;;5.97;;
55216;SDS011;41086;46.736;15.666;2023-04-24T11:54:51;9.70;;;6.03;;
55216;SDS011;41086;46.736;15.666;2023-04-24T11:57:22;13.63;;;5.85;;
55216;SDS011;41086;46.736;15.666;2023-04-24T11:59:49;6.97;;;5.15;;
55216;SDS011;41086;46.736;15.666;2023-04-24T12:02:22;6.28;;;4.70;;
55216;SDS011;41086;46.736;15.666;2023-04-24T12:04:49;8.13;;;4.80;;
55216;SDS011;41086;46.736;15.666;2023-04-24T12:07:17;6.82;;;4.78;;
55216;SDS011;41086;46.736;15.666;2023-04-24T12:12:13;8.15;;;5.13;;
55216;SDS011;41086;46.736;15.666;2023-04-24T12:14:44;7.15;;;4.80;;
55216;SDS011;41086;46.736;15.666;2023-04-24T12:17:10;10.25;;;5.95;;
55216;SDS011;41086;46.736;15.666;2023-04-24T12:19:37;9.65;;;6.13;;
55216;SDS011;41086;46.736;15.666;2023-04-24T12:22:05;8.43;;;4.57;;
55216;SDS011;41086;46.736;15.666;2023-04-24T12:24:31;6.78;;;4.60;;
55216;SDS011;41086;46.736;15.666;2023-04-24T12:26:58;7.28;;;4.90;;
55216;SDS011;41086;46.736;15.666;2023-04-24T12:29:27;8.82;;;5.38;;
55216;SDS011;41086;46.736;15.666;2023-04-24T12:31:54;8.10;;;5.28;;
55216;SDS011;41086;46.736;15.666;2023-04-24T12:34:22;8.15;;;5.30;;
55216;SDS011;41086;46.736;15.666;2023-04-24T12:36:48;8.18;;;5.57;;
55216;SDS011;41086;46.736;15.666;2023-04-24T12:39:18;9.55;;;5.45;;
55216;SDS011;41086;46.736;15.666;2023-04-24T12:41:55;8.15;;;5.53;;
55216;SDS011;41086;46.736;15.666;2023-04-24T12:44:32;11.18;;;4.88;;
55216;SDS011;41086;46.736;15.666;2023-04-24T12:47:01;9.70;;;5.05;;
55216;SDS011;41086;46.736;15.666;2023-04-24T12:49:29;10.27;;;4.43;;
55216;SDS011;41086;46.736;15.666;2023-04-24T12:51:56;6.55;;;4.45;;
55216;SDS011;41086;46.736;15.666;2023-04-24T12:54:23;8.32;;;4.57;;
55216;SDS011;41086;46.736;15.666;2023-04-24T12:56:50;6.93;;;4.60;;
55216;SDS011;41086;46.736;15.666;2023-04-24T12:59:17;7.55;;;5.25;;
55216;SDS011;41086;46.736;15.666;2023-04-24T13:01:43;7.22;;;4.43;;
55216;SDS011;41086;46.736;15.666;2023-04-24T13:04:10;5.70;;;4.05;;
55216;SDS011;41086;46.736;15.666;2023-04-24T13:06:37;6.40;;;4.20;;
55216;SDS011;41086;46.736;15.666;2023-04-24T13:09:04;5.72;;;3.78;;
55216;SDS011;41086;46.736;15.666;2023-04-24T13:11:31;4.78;;;3.42;;
55216;SDS011;41086;46.736;15.666;2023-04-24T13:13:58;7.82;;;4.43;;
55216;SDS011;41086;46.736;15.666;2023-04-24T13:16:25;6.30;;;4.03;;
55216;SDS011;41086;46.736;15.666;2023-04-24T13:18:52;5.22;;;3.45;;
55216;SDS011;41086;46.736;15.666;2023-04-24T13:21:18;5.53;;;3.75;;
55216;SDS011;41086;46.736;15.666;2023-04-24T13:23:45;6.25;;;4.20;;
55216;SDS011;41086;46.736;15.666;2023-04-24T13:26:11;4.35;;;2.80;;
55216;SDS011;41086;46.736;15.666;2023-04-24T13:31:05;3.95;;;2.78;;
55216;SDS011;41086;46.736;15.666;2023-04-24T13:35:59;3.88;;;2.83;;
55216;SDS011;41086;46.736;15.666;2023-04-24T13:40:52;4.00;;;2.85;;
55216;SDS011;41086;46.736;15.666;2023-04-24T13:43:19;8.30;;;5.53;;
55216;SDS011;41086;46.736;15.666;2023-04-24T13:45:45;4.75;;;2.70;;
55216;SDS011;41086;46.736;15.666;2023-04-24T13:48:12;4.55;;;3.28;;
55216;SDS011;41086;46.736;15.666;2023-04-24T13:50:42;4.47;;;3.17;;
55216;SDS011;41086;46.736;15.666;2023-04-24T13:53:10;4.47;;;2.85;;
55216;SDS011;41086;46.736;15.666;2023-04-24T13:55:36;2.75;;;1.92;;
55216;SDS011;41086;46.736;15.666;2023-04-24T13:58:03;2.75;;;1.90;;
55216;SDS011;41086;46.736;15.666;2023-04-24T14:00:30;3.03;;;2.08;;
55216;SDS011;41086;46.736;15.666;2023-04-24T14:02:57;5.30;;;2.10;;
55216;SDS011;41086;46.736;15.666;2023-04-24T14:05:24;2.75;;;2.10;;
55216;SDS011;41086;46.736;15.666;2023-04-24T14:10:17;3.83;;;2.33;;
55216;SDS011;41086;46.736;15.666;2023-04-24T14:12:44;19.83;;;13.63;;
55216;SDS011;41086;46.736;15.666;2023-04-24T14:15:11;4.90;;;2.42;;
55216;SDS011;41086;46.736;15.666;2023-04-24T14:17:39;3.22;;;1.85;;
55216;SDS011;41086;46.736;15.666;2023-04-24T14:20:06;2.90;;;1.77;;
55216;SDS011;41086;46.736;15.666;2023-04-24T14:22:34;3.45;;;1.50;;
55216;SDS011;41086;46.736;15.666;2023-04-24T14:25:03;2.85;;;2.08;;
55216;SDS011;41086;46.736;15.666;2023-04-24T14:27:32;3.75;;;1.73;;
55216;SDS011;41086;46.736;15.666;2023-04-24T14:30:00;2.15;;;1.40;;
55216;SDS011;41086;46.736;15.666;2023-04-24T14:32:28;4.55;;;2.10;;
55216;SDS011;41086;46.736;15.666;2023-04-24T14:34:56;2.28;;;1.48;;
55216;SDS011;41086;46.736;15.666;2023-04-24T14:37:25;3.55;;;1.60;;
55216;SDS011;41086;46.736;15.666;2023-04-24T14:39:53;3.30;;;1.55;;
55216;SDS011;41086;46.736;15.666;2023-04-24T14:42:39;136.50;;;105.38;;
55216;SDS011;41086;46.736;15.666;2023-04-24T14:45:07;35.72;;;27.88;;
55216;SDS011;41086;46.736;15.666;2023-04-24T14:47:34;2.83;;;2.10;;
55216;SDS011;41086;46.736;15.666;2023-04-24T14:50:01;4.18;;;2.45;;
55216;SDS011;41086;46.736;15.666;2023-04-24T14:52:27;4.38;;;1.77;;
55216;SDS011;41086;46.736;15.666;2023-04-24T14:54:54;2.20;;;1.38;;
55216;SDS011;41086;46.736;15.666;2023-04-24T14:57:21;2.55;;;1.48;;
55216;SDS011;41086;46.736;15.666;2023-04-24T14:59:47;6.20;;;2.90;;
55216;SDS011;41086;46.736;15.666;2023-04-24T15:02:14;0.98;;;0.70;;
55216;SDS011;41086;46.736;15.666;2023-04-24T15:04:43;1.25;;;0.77;;
55216;SDS011;41086;46.736;15.666;2023-04-24T15:07:10;1.38;;;0.68;;
55216;SDS011;41086;46.736;15.666;2023-04-24T15:09:36;2.67;;;0.90;;
55216;SDS011;41086;46.736;15.666;2023-04-24T15:12:03;2.47;;;1.55;;
55216;SDS011;41086;46.736;15.666;2023-04-24T15:14:30;8.60;;;7.68;;
55216;SDS011;41086;46.736;15.666;2023-04-24T15:16:56;3.65;;;2.40;;
55216;SDS011;41086;46.736;15.666;2023-04-24T15:19:23;49.85;;;44.95;;
55216;SDS011;41086;46.736;15.666;2023-04-24T15:21:50;144.18;;;123.13;;
55216;SDS011;41086;46.736;15.666;2023-04-24T15:24:16;649.75;;;452.55;;
55216;SDS011;41086;46.736;15.666;2023-04-24T15:26:43;1438.25;;;833.22;;
55216;SDS011;41086;46.736;15.666;2023-04-24T15:29:09;537.95;;;362.25;;